Terminal Aerodrome Forecast
Issued by NWS

Home | Current Version | Previous Version | Text Only | Print | Product List | Glossary On
Versions: 1 2 3 4 5 6 7 8 9 10 11 12 13 14 15 16 17
000
FTUS45 KBOI 031120
TAFBKE
TAF
KBKE 031120Z 0312/0412 VRB06KT P6SM VCSH OVC015
     FM032200 VRB05KT P6SM VCSH SCT025 BKN040
     FM040600 VRB04KT P6SM OVC025=

USA.gov is the U.S. government's official web portal to all federal, state and local government web resources and services.